Time;durP1;ratioP1;P1;durP2;ratioP2;P2;SDS_P1;SDS_P2;PMS_P1;PMS_P2;Temp;Humidity;BMP_temperature;BMP_pressure;BME280_temperature;BME280_humidity;BME280_pressure;Samples;Min_cycle;Max_cycle;Signal;HPM_P1;HPM_P2
2023/06/26 00:01:42;;;;;;;;;;;;;;;;;;5014217;28;19916;-61
2023/06/26 00:04:14;;;;;;;;;;;;;;;;;;5014376;28;19964;-61
2023/06/26 00:06:40;;;;;;;;;;;;;;;;;;5013355;28;19917;-61
2023/06/26 00:09:06;;;;;;;;;;;;;;;;;;5012585;28;20067;-61
2023/06/26 00:11:33;;;;;;;;;;;;;;;;;;4996305;28;19967;-61
2023/06/26 00:14:00;;;;;;;;;;;;;;;;;;4996606;28;20479;-61
2023/06/26 00:16:25;;;;;;;;;;;;;;;;;;5013723;28;19913;-61
2023/06/26 00:18:51;;;;;;;;;;;;;;;;;;5014160;28;19956;-61
2023/06/26 00:21:18;;;;;;;;;;;;;;;;;;5012598;28;19910;-61
2023/06/26 00:23:44;;;;;;;;;;;;;;;;;;5012473;28;20033;-61
2023/06/26 00:26:10;;;;;;;;;;;;;;;;;;5014003;28;19941;-61
2023/06/26 00:28:36;;;;;;;;;;;;;;;;;;5013062;28;19941;-61
2023/06/26 00:31:02;;;;;;;;;;;;;;;;;;5007585;28;19917;-61
2023/06/26 00:33:28;;;;;;;;;;;;;;;;;;4995747;28;19949;-61
2023/06/26 00:35:54;;;;;;;;;;;;;;;;;;5013616;28;19963;-61
2023/06/26 00:38:20;;;;;;;;;;;;;;;;;;4999283;28;20047;-61
2023/06/26 00:40:46;;;;;;;;;;;;;;;;;;5009021;28;19924;-62
2023/06/26 00:43:11;;;;;;;;;;;;;;;;;;5012651;28;20377;-62
2023/06/26 00:45:37;;;;;;;;;;;;;;;;;;5013328;28;20397;-61
2023/06/26 00:48:03;;;;;;;;;;;;;;;;;;5013701;28;19910;-61
2023/06/26 00:50:29;;;;;;;;;;;;;;;;;;5028504;28;20016;-61
2023/06/26 00:53:00;;;;;;;;;;;;;;;;;;5028361;28;20441;-61
2023/06/26 00:55:26;;;;;;;;;;;;;;;;;;5012828;28;19910;-62
2023/06/26 00:57:51;;;;;;;;;;;;;;;;;;5011061;28;19974;-62
2023/06/26 01:00:17;;;;;;;;;;;;;;;;;;5013251;28;19910;-65
2023/06/26 01:02:43;;;;;;;;;;;;;;;;;;4995342;28;20111;-63
2023/06/26 01:05:12;;;;;;;;;;;;;;;;;;5013314;28;19913;-63
2023/06/26 01:07:39;;;;;;;;;;;;;;;;;;5013033;28;19916;-63
2023/06/26 01:10:04;;;;;;;;;;;;;;;;;;5010400;28;19920;-64
2023/06/26 01:12:31;;;;;;;;;;;;;;;;;;5028490;28;19961;-63
2023/06/26 01:14:57;;;;;;;;;;;;;;;;;;5013236;28;20384;-63
2023/06/26 01:17:23;;;;;;;;;;;;;;;;;;5012383;28;19925;-63
2023/06/26 01:19:49;;;;;;;;;;;;;;;;;;5012839;28;19964;-63
2023/06/26 01:22:15;;;;;;;;;;;;;;;;;;5012289;28;19918;-63
2023/06/26 01:24:41;;;;;;;;;;;;;;;;;;5010337;28;19967;-63
2023/06/26 01:27:07;;;;;;;;;;;;;;;;;;5011815;28;20332;-63
2023/06/26 01:29:33;;;;;;;;;;;;;;;;;;5013079;28;20010;-63
2023/06/26 01:31:59;;;;;;;;;;;;;;;;;;5011891;28;19917;-63
2023/06/26 01:34:24;;;;;;;;;;;;;;;;;;5013020;28;19913;-63
2023/06/26 01:36:50;;;;;;;;;;;;;;;;;;5012613;28;20428;-63
2023/06/26 01:39:16;;;;;;;;;;;;;;;;;;5010684;28;19913;-63
2023/06/26 01:41:42;;;;;;;;;;;;;;;;;;5012513;28;20277;-62
2023/06/26 01:44:08;;;;;;;;;;;;;;;;;;5026815;28;20385;-63
2023/06/26 01:46:34;;;;;;;;;;;;;;;;;;5012335;28;19924;-63
2023/06/26 01:49:00;;;;;;;;;;;;;;;;;;5010837;28;20266;-63
2023/06/26 01:51:26;;;;;;;;;;;;;;;;;;5007242;28;20353;-63
2023/06/26 01:53:52;;;;;;;;;;;;;;;;;;5012458;28;20070;-63
2023/06/26 01:56:18;;;;;;;;;;;;;;;;;;5012698;28;19920;-62
2023/06/26 01:58:44;;;;;;;;;;;;;;;;;;5011945;28;19920;-63
2023/06/26 02:01:10;;;;;;;;;;;;;;;;;;5009741;28;19957;-63
2023/06/26 02:03:36;;;;;;;;;;;;;;;;;;5012521;28;19963;-63
2023/06/26 02:06:02;;;;;;;;;;;;;;;;;;4994474;28;19918;-64
2023/06/26 02:08:28;;;;;;;;;;;;;;;;;;5011905;28;19941;-64
2023/06/26 02:10:54;;;;;;;;;;;;;;;;;;5012304;28;20429;-61
2023/06/26 02:13:20;;;;;;;;;;;;;;;;;;5011956;28;19980;-63
2023/06/26 02:15:46;;;;;;;;;;;;;;;;;;5010472;28;19963;-61
2023/06/26 02:18:11;;;;;;;;;;;;;;;;;;5011835;28;19968;-61
2023/06/26 02:20:37;;;;;;;;;;;;;;;;;;5011477;28;20041;-63
2023/06/26 02:23:03;;;;;;;;;;;;;;;;;;5011912;28;19952;-63
2023/06/26 02:25:29;;;;;;;;;;;;;;;;;;5012360;28;20004;-63
2023/06/26 02:27:55;;;;;;;;;;;;;;;;;;5012345;28;19967;-63
2023/06/26 02:30:21;;;;;;;;;;;;;;;;;;5008269;28;20374;-63
2023/06/26 02:32:47;;;;;;;;;;;;;;;;;;5010635;28;19984;-64
2023/06/26 02:35:13;;;;;;;;;;;;;;;;;;5011873;28;20338;-63
2023/06/26 02:37:39;;;;;;;;;;;;;;;;;;5011266;28;19959;-63
2023/06/26 02:40:05;;;;;;;;;;;;;;;;;;4994053;28;20362;-64
2023/06/26 02:42:31;;;;;;;;;;;;;;;;;;5011913;28;20001;-64
2023/06/26 02:44:57;;;;;;;;;;;;;;;;;;4993242;28;19967;-63
2023/06/26 02:47:22;;;;;;;;;;;;;;;;;;5011612;28;20362;-63
2023/06/26 02:49:48;;;;;;;;;;;;;;;;;;5009305;28;19927;-64
2023/06/26 02:52:14;;;;;;;;;;;;;;;;;;5010975;28;19948;-64
2023/06/26 02:54:40;;;;;;;;;;;;;;;;;;5011469;28;20041;-61
2023/06/26 02:57:06;;;;;;;;;;;;;;;;;;5011271;28;20007;-64
2023/06/26 02:59:32;;;;;;;;;;;;;;;;;;5010606;28;20336;-64
2023/06/26 03:01:58;;;;;;;;;;;;;;;;;;5009888;28;19917;-64
2023/06/26 03:04:24;;;;;;;;;;;;;;;;;;5010364;28;19910;-64
2023/06/26 03:06:50;;;;;;;;;;;;;;;;;;5010331;28;20388;-64
2023/06/26 03:09:16;;;;;;;;;;;;;;;;;;5007652;28;19917;-64
2023/06/26 03:11:42;;;;;;;;;;;;;;;;;;5014545;28;20029;-64
2023/06/26 03:14:08;;;;;;;;;;;;;;;;;;5014786;28;19929;-64
2023/06/26 03:16:34;;;;;;;;;;;;;;;;;;5013590;28;20428;-64
2023/06/26 03:19:00;;;;;;;;;;;;;;;;;;5014623;28;20088;-64
2023/06/26 03:21:26;;;;;;;;;;;;;;;;;;5011163;28;20290;-64
2023/06/26 03:23:52;;;;;;;;;;;;;;;;;;5013370;28;19920;-64
2023/06/26 03:26:18;;;;;;;;;;;;;;;;;;5014506;28;19909;-61
2023/06/26 03:28:44;;;;;;;;;;;;;;;;;;5013870;28;20400;-64
2023/06/26 03:31:10;;;;;;;;;;;;;;;;;;5014191;28;19910;-64
2023/06/26 03:33:36;;;;;;;;;;;;;;;;;;5014533;28;19914;-64
2023/06/26 03:36:01;;;;;;;;;;;;;;;;;;5012650;28;20028;-64
2023/06/26 03:38:27;;;;;;;;;;;;;;;;;;4994707;28;19921;-64
2023/06/26 03:40:53;;;;;;;;;;;;;;;;;;5014111;28;20354;-64
2023/06/26 03:43:19;;;;;;;;;;;;;;;;;;5013220;28;20366;-64
2023/06/26 03:45:46;;;;;;;;;;;;;;;;;;5014215;28;20001;-64
2023/06/26 03:48:12;;;;;;;;;;;;;;;;;;5014178;28;19910;-65
2023/06/26 03:50:38;;;;;;;;;;;;;;;;;;5012818;28;19972;-64
2023/06/26 03:53:04;;;;;;;;;;;;;;;;;;5012849;28;20387;-64
2023/06/26 03:55:29;;;;;;;;;;;;;;;;;;5011748;28;20025;-64
2023/06/26 03:57:55;;;;;;;;;;;;;;;;;;5013967;28;19909;-64
2023/06/26 04:00:21;;;;;;;;;;;;;;;;;;5013502;28;19913;-64
2023/06/26 04:02:47;;;;;;;;;;;;;;;;;;4988978;28;19964;-64
2023/06/26 04:05:14;;;;;;;;;;;;;;;;;;5020709;28;19921;-64
2023/06/26 04:07:40;;;;;;;;;;;;;;;;;;5023252;28;20381;-65
2023/06/26 04:10:06;;;;;;;;;;;;;;;;;;5006333;28;19953;-64
2023/06/26 04:12:32;;;;;;;;;;;;;;;;;;5028240;28;20011;-64
2023/06/26 04:14:58;;;;;;;;;;;;;;;;;;5013149;28;19917;-64
2023/06/26 04:17:23;;;;;;;;;;;;;;;;;;5014407;28;20492;-64
2023/06/26 04:19:49;;;;;;;;;;;;;;;;;;5013109;28;19924;-64
2023/06/26 04:22:15;;;;;;;;;;;;;;;;;;5023090;28;19919;-64
2023/06/26 04:24:41;;;;;;;;;;;;;;;;;;5017721;28;19921;-64
2023/06/26 04:27:07;;;;;;;;;;;;;;;;;;5011460;28;20879;-62
2023/06/26 04:29:33;;;;;;;;;;;;;;;;;;5011177;28;20055;-64
2023/06/26 04:31:59;;;;;;;;;;;;;;;;;;5011898;28;20428;-64
2023/06/26 04:34:25;;;;;;;;;;;;;;;;;;5019099;28;19999;-64
2023/06/26 04:36:51;;;;;;;;;;;;;;;;;;5002028;28;19982;-65
2023/06/26 04:39:17;;;;;;;;;;;;;;;;;;5022909;28;19914;-65
2023/06/26 04:41:43;;;;;;;;;;;;;;;;;;5012441;28;19957;-64
2023/06/26 04:44:09;;;;;;;;;;;;;;;;;;5020022;28;19923;-65
2023/06/26 04:46:35;;;;;;;;;;;;;;;;;;5021866;28;20362;-63
2023/06/26 04:49:03;;;;;;;;;;;;;;;;;;5031142;28;20411;-63
2023/06/26 04:51:29;;;;;;;;;;;;;;;;;;5032253;28;19913;-63
2023/06/26 04:53:55;;;;;;;;;;;;;;;;;;5011197;28;19953;-63
2023/06/26 04:56:20;;;;;;;;;;;;;;;;;;5014178;28;19913;-63
2023/06/26 04:58:46;;;;;;;;;;;;;;;;;;5027620;28;20470;-63
2023/06/26 05:01:15;;;;;;;;;;;;;;;;;;5021078;28;19917;-63
2023/06/26 05:03:41;;;;;;;;;;;;;;;;;;5016822;28;19913;-63
2023/06/26 05:06:07;;;;;;;;;;;;;;;;;;5014893;28;19959;-63
2023/06/26 05:08:33;;;;;;;;;;;;;;;;;;5019879;28;20464;-64
2023/06/26 05:10:59;;;;;;;;;;;;;;;;;;5008051;28;19917;-63
2023/06/26 05:13:25;;;;;;;;;;;;;;;;;;5014119;28;20351;-63
2023/06/26 05:15:51;;;;;;;;;;;;;;;;;;4991786;28;20111;-63
2023/06/26 05:18:16;;;;;;;;;;;;;;;;;;5008876;28;20120;-63
2023/06/26 05:20:42;;;;;;;;;;;;;;;;;;5017794;28;20016;-63
2023/06/26 05:23:08;;;;;;;;;;;;;;;;;;5027563;28;19916;-63
2023/06/26 05:25:34;;;;;;;;;;;;;;;;;;5012232;28;19909;-63
2023/06/26 05:28:00;;;;;;;;;;;;;;;;;;5012251;28;19913;-63
2023/06/26 05:30:26;;;;;;;;;;;;;;;;;;5010132;28;19945;-63
2023/06/26 05:32:52;;;;;;;;;;;;;;;;;;5011130;28;20324;-63
2023/06/26 05:35:18;;;;;;;;;;;;;;;;;;5010812;28;20318;-63
2023/06/26 05:37:44;;;;;;;;;;;;;;;;;;5007857;28;20393;-63
2023/06/26 05:40:10;;;;;;;;;;;;;;;;;;5010592;28;20017;-63
2023/06/26 05:42:36;;;;;;;;;;;;;;;;;;5031758;28;20300;-63
2023/06/26 05:45:02;;;;;;;;;;;;;;;;;;5010452;28;19913;-63
2023/06/26 05:47:28;;;;;;;;;;;;;;;;;;4994216;28;20054;-63
2023/06/26 05:49:54;;;;;;;;;;;;;;;;;;5010453;28;19918;-63
2023/06/26 05:52:20;;;;;;;;;;;;;;;;;;5008995;28;20024;-64
2023/06/26 05:54:45;;;;;;;;;;;;;;;;;;5010916;28;19921;-63
2023/06/26 05:57:11;;;;;;;;;;;;;;;;;;5012923;28;19960;-63
2023/06/26 05:59:37;;;;;;;;;;;;;;;;;;5028377;28;19909;-64
2023/06/26 06:02:03;;;;;;;;;;;;;;;;;;5025908;28;19909;-63
2023/06/26 06:04:29;;;;;;;;;;;;;;;;;;5008341;28;20080;-63
2023/06/26 06:06:55;;;;;;;;;;;;;;;;;;5014116;28;19969;-64
2023/06/26 06:09:21;;;;;;;;;;;;;;;;;;5011342;28;19937;-64
2023/06/26 06:11:47;;;;;;;;;;;;;;;;;;5011227;28;19999;-63
2023/06/26 06:14:13;;;;;;;;;;;;;;;;;;5019396;28;19909;-63
2023/06/26 06:16:38;;;;;;;;;;;;;;;;;;5009469;28;20015;-63
2023/06/26 06:19:06;;;;;;;;;;;;;;;;;;5008723;28;19988;-64
2023/06/26 06:21:32;;;;;;;;;;;;;;;;;;5011307;28;20382;-63
2023/06/26 06:23:58;;;;;;;;;;;;;;;;;;5011674;28;19919;-64
2023/06/26 06:26:24;;;;;;;;;;;;;;;;;;5026647;28;19922;-65
2023/06/26 06:28:50;;;;;;;;;;;;;;;;;;5011579;28;19972;-63
2023/06/26 06:31:16;;;;;;;;;;;;;;;;;;5008247;28;19925;-64
2023/06/26 06:33:42;;;;;;;;;;;;;;;;;;5009323;28;19952;-64
2023/06/26 06:36:08;;;;;;;;;;;;;;;;;;5018051;28;19913;-63
2023/06/26 06:38:34;;;;;;;;;;;;;;;;;;5023731;28;22280;-64
2023/06/26 06:41:00;;;;;;;;;;;;;;;;;;5020446;28;19917;-64
2023/06/26 06:43:26;;;;;;;;;;;;;;;;;;5023988;28;19913;-63
2023/06/26 06:45:52;;;;;;;;;;;;;;;;;;5025840;28;20432;-64
2023/06/26 06:48:18;;;;;;;;;;;;;;;;;;5027888;28;19914;-64
2023/06/26 06:50:43;;;;;;;;;;;;;;;;;;5013122;28;19941;-64
2023/06/26 06:53:10;;;;;;;;;;;;;;;;;;5014391;28;19956;-64
2023/06/26 06:55:36;;;;;;;;;;;;;;;;;;5019687;28;20389;-64
2023/06/26 06:58:02;;;;;;;;;;;;;;;;;;5026959;28;20020;-65
2023/06/26 07:00:28;;;;;;;;;;;;;;;;;;5025862;28;19979;-64
2023/06/26 07:02:56;;;;;;;;;;;;;;;;;;5016450;28;20380;-64
2023/06/26 07:05:22;;;;;;;;;;;;;;;;;;5034369;28;19917;-64
2023/06/26 07:07:48;;;;;;;;;;;;;;;;;;5034754;28;19940;-64
2023/06/26 07:10:14;;;;;;;;;;;;;;;;;;5028202;28;20300;-64
2023/06/26 07:12:40;;;;;;;;;;;;;;;;;;5014383;28;19920;-65
2023/06/26 07:15:05;;;;;;;;;;;;;;;;;;5012540;28;19972;-64
2023/06/26 07:17:31;;;;;;;;;;;;;;;;;;5014641;28;20458;-65
2023/06/26 07:19:57;;;;;;;;;;;;;;;;;;5001526;28;20004;-65
2023/06/26 07:22:23;;;;;;;;;;;;;;;;;;5034308;28;20000;-64
2023/06/26 07:24:49;;;;;;;;;;;;;;;;;;5034401;28;19909;-65
2023/06/26 07:27:15;;;;;;;;;;;;;;;;;;5016084;28;19909;-64
2023/06/26 07:29:41;;;;;;;;;;;;;;;;;;5030640;28;21761;-65
2023/06/26 07:32:07;;;;;;;;;;;;;;;;;;5014066;28;19956;-64
2023/06/26 07:34:33;;;;;;;;;;;;;;;;;;5028377;28;20004;-63
2023/06/26 07:36:59;;;;;;;;;;;;;;;;;;5014362;28;19910;-64
2023/06/26 07:39:25;;;;;;;;;;;;;;;;;;5023678;28;19963;-65
2023/06/26 07:41:51;;;;;;;;;;;;;;;;;;5010008;28;19952;-64
2023/06/26 07:44:17;;;;;;;;;;;;;;;;;;5033743;28;19916;-64
2023/06/26 07:46:44;;;;;;;;;;;;;;;;;;5023923;28;19960;-65
2023/06/26 07:49:10;;;;;;;;;;;;;;;;;;5013919;28;20374;-65
2023/06/26 07:51:36;;;;;;;;;;;;;;;;;;4995071;28;19940;-66
2023/06/26 07:54:02;;;;;;;;;;;;;;;;;;5010808;28;20078;-66
2023/06/26 07:56:28;;;;;;;;;;;;;;;;;;5012317;28;19910;-65
2023/06/26 07:58:54;;;;;;;;;;;;;;;;;;5012023;28;20425;-66
2023/06/26 08:01:19;;;;;;;;;;;;;;;;;;5010801;28;19958;-66
2023/06/26 08:03:45;;;;;;;;;;;;;;;;;;4994119;28;19957;-66
2023/06/26 08:06:11;;;;;;;;;;;;;;;;;;5007280;28;19970;-66
2023/06/26 08:08:37;;;;;;;;;;;;;;;;;;5012913;28;20322;-66
2023/06/26 08:11:03;;;;;;;;;;;;;;;;;;5012847;28;20115;-66
2023/06/26 08:13:29;;;;;;;;;;;;;;;;;;5013507;28;19919;-66
2023/06/26 08:15:55;;;;;;;;;;;;;;;;;;5013517;28;20365;-67
2023/06/26 08:18:21;;;;;;;;;;;;;;;;;;5011735;28;19957;-66
2023/06/26 08:20:47;;;;;;;;;;;;;;;;;;5012916;28;19956;-66
2023/06/26 08:23:12;;;;;;;;;;;;;;;;;;5013451;28;20016;-65
2023/06/26 08:25:38;;;;;;;;;;;;;;;;;;5016980;28;20054;-65
2023/06/26 08:28:04;;;;;;;;;;;;;;;;;;4995525;28;20414;-65
2023/06/26 08:30:30;;;;;;;;;;;;;;;;;;5027307;28;19949;-65
2023/06/26 08:32:56;;;;;;;;;;;;;;;;;;5021096;28;20285;-68
2023/06/26 08:35:22;;;;;;;;;;;;;;;;;;5012995;28;19913;-65
2023/06/26 08:37:48;;;;;;;;;;;;;;;;;;4993753;28;19960;-65
2023/06/26 08:40:14;;;;;;;;;;;;;;;;;;5019168;28;20008;-66
2023/06/26 08:42:40;;;;;;;;;;;;;;;;;;5020434;28;19953;-66
2023/06/26 08:45:06;;;;;;;;;;;;;;;;;;5019124;28;20433;-66
2023/06/26 08:47:32;;;;;;;;;;;;;;;;;;5004373;28;20004;-65
2023/06/26 08:49:57;;;;;;;;;;;;;;;;;;5027593;28;19913;-65
2023/06/26 08:52:23;;;;;;;;;;;;;;;;;;5031580;28;19917;-65
2023/06/26 08:54:49;;;;;;;;;;;;;;;;;;5014097;28;19917;-65
2023/06/26 08:57:15;;;;;;;;;;;;;;;;;;5018312;28;19968;-66
2023/06/26 08:59:41;;;;;;;;;;;;;;;;;;5012231;28;19960;-66
2023/06/26 09:02:07;;;;;;;;;;;;;;;;;;5020174;28;19968;-65
2023/06/26 09:04:33;;;;;;;;;;;;;;;;;;5026093;28;19924;-65
2023/06/26 09:06:59;;;;;;;;;;;;;;;;;;5031673;28;19909;-65
2023/06/26 09:09:25;;;;;;;;;;;;;;;;;;5015478;28;20294;-65
2023/06/26 09:11:51;;;;;;;;;;;;;;;;;;5022795;28;19949;-64
2023/06/26 09:14:17;;;;;;;;;;;;;;;;;;5017965;28;19924;-65
2023/06/26 09:16:43;;;;;;;;;;;;;;;;;;5016244;28;19925;-66
2023/06/26 09:19:09;;;;;;;;;;;;;;;;;;5022049;28;19917;-66
2023/06/26 09:21:35;;;;;;;;;;;;;;;;;;5024867;28;20274;-67
2023/06/26 09:24:01;;;;;;;;;;;;;;;;;;5029092;28;19920;-65
2023/06/26 09:26:27;;;;;;;;;;;;;;;;;;5017027;28;19992;-65
2023/06/26 09:28:52;;;;;;;;;;;;;;;;;;5011708;28;19956;-66
2023/06/26 09:31:20;;;;;;;;;;;;;;;;;;5010871;28;20002;-65
2023/06/26 09:33:48;;;;;;;;;;;;;;;;;;5009461;28;20266;-64
2023/06/26 09:36:14;;;;;;;;;;;;;;;;;;5010188;28;19924;-67
2023/06/26 09:38:39;;;;;;;;;;;;;;;;;;5017456;28;19953;-66
2023/06/26 09:41:05;;;;;;;;;;;;;;;;;;5002595;28;20253;-66
2023/06/26 09:43:31;;;;;;;;;;;;;;;;;;4993434;28;19924;-66
2023/06/26 09:45:58;;;;;;;;;;;;;;;;;;5026317;28;19909;-65
2023/06/26 09:48:24;;;;;;;;;;;;;;;;;;5000983;28;19921;-66
2023/06/26 09:50:50;;;;;;;;;;;;;;;;;;5010131;28;19967;-67
2023/06/26 09:53:18;;;;;;;;;;;;;;;;;;5009534;28;20337;-66
2023/06/26 09:55:44;;;;;;;;;;;;;;;;;;5026101;28;19928;-68
2023/06/26 09:58:10;;;;;;;;;;;;;;;;;;5009547;28;19913;-66
2023/06/26 10:00:36;;;;;;;;;;;;;;;;;;5007895;28;20290;-67
2023/06/26 10:03:01;;;;;;;;;;;;;;;;;;5011613;28;19963;-66
2023/06/26 10:05:27;;;;;;;;;;;;;;;;;;5026638;28;20007;-64
2023/06/26 10:07:53;;;;;;;;;;;;;;;;;;5009525;28;20001;-67
2023/06/26 10:10:19;;;;;;;;;;;;;;;;;;5009096;28;19945;-65
2023/06/26 10:12:45;;;;;;;;;;;;;;;;;;5009336;28;19957;-65
2023/06/26 10:15:13;;;;;;;;;;;;;;;;;;5011722;28;19914;-64
2023/06/26 10:17:39;;;;;;;;;;;;;;;;;;5007757;28;19944;-65
2023/06/26 10:20:06;;;;;;;;;;;;;;;;;;5013057;28;19960;-66
2023/06/26 10:22:32;;;;;;;;;;;;;;;;;;4994816;28;20354;-65
2023/06/26 10:24:57;;;;;;;;;;;;;;;;;;5013822;28;20018;-65
2023/06/26 10:27:23;;;;;;;;;;;;;;;;;;5012760;28;19917;-65
2023/06/26 10:29:49;;;;;;;;;;;;;;;;;;5013889;28;19913;-66
2023/06/26 10:32:15;;;;;;;;;;;;;;;;;;5013830;28;19980;-65
2023/06/26 10:34:41;;;;;;;;;;;;;;;;;;5011487;28;20047;-66
2023/06/26 10:37:07;;;;;;;;;;;;;;;;;;5013136;28;19913;-65
2023/06/26 10:39:33;;;;;;;;;;;;;;;;;;5011179;28;19987;-65
2023/06/26 10:41:59;;;;;;;;;;;;;;;;;;5022554;28;19948;-65
2023/06/26 10:44:25;;;;;;;;;;;;;;;;;;5015369;28;20031;-65
2023/06/26 10:46:52;;;;;;;;;;;;;;;;;;5014659;28;19956;-66
2023/06/26 10:49:18;;;;;;;;;;;;;;;;;;5015561;28;19996;-66
2023/06/26 10:51:44;;;;;;;;;;;;;;;;;;5016235;28;20091;-65
2023/06/26 10:54:10;;;;;;;;;;;;;;;;;;5012867;28;19987;-65
2023/06/26 10:56:36;;;;;;;;;;;;;;;;;;5046499;28;20381;-66
2023/06/26 10:59:02;;;;;;;;;;;;;;;;;;5020546;28;19924;-66
2023/06/26 11:01:27;;;;;;;;;;;;;;;;;;5003215;28;19949;-67
2023/06/26 11:03:53;;;;;;;;;;;;;;;;;;5028092;28;20027;-67
2023/06/26 11:06:20;;;;;;;;;;;;;;;;;;5019509;28;20369;-66
2023/06/26 11:08:46;;;;;;;;;;;;;;;;;;5016503;28;19960;-68
2023/06/26 11:11:12;;;;;;;;;;;;;;;;;;5027015;28;19943;-65
2023/06/26 11:13:38;;;;;;;;;;;;;;;;;;5009994;28;20018;-66
2023/06/26 11:16:05;;;;;;;;;;;;;;;;;;5023308;28;19918;-66
2023/06/26 11:18:31;;;;;;;;;;;;;;;;;;5012111;28;19933;-66
2023/06/26 11:20:57;;;;;;;;;;;;;;;;;;5012891;28;19967;-66
2023/06/26 11:23:24;;;;;;;;;;;;;;;;;;5013917;28;19975;-65
2023/06/26 11:25:50;;;;;;;;;;;;;;;;;;4996000;28;19921;-66
2023/06/26 11:28:16;;;;;;;;;;;;;;;;;;5011757;28;20427;-67
2023/06/26 11:30:42;;;;;;;;;;;;;;;;;;5013394;28;19992;-68
2023/06/26 11:33:08;;;;;;;;;;;;;;;;;;5014812;28;19924;-67
2023/06/26 11:35:34;;;;;;;;;;;;;;;;;;5014585;28;19984;-66
2023/06/26 11:38:03;;;;;;;;;;;;;;;;;;5014186;28;20510;-66
2023/06/26 11:40:31;;;;;;;;;;;;;;;;;;5012619;28;19909;-66
2023/06/26 11:42:57;;;;;;;;;;;;;;;;;;5017080;28;19975;-67
2023/06/26 11:45:23;;;;;;;;;;;;;;;;;;5016050;28;19944;-67
2023/06/26 11:47:49;;;;;;;;;;;;;;;;;;5025535;28;20079;-67
2023/06/26 11:50:15;;;;;;;;;;;;;;;;;;5023123;28;20288;-67
2023/06/26 11:52:40;;;;;;;;;;;;;;;;;;5033520;28;20002;-67
2023/06/26 11:55:06;;;;;;;;;;;;;;;;;;5033041;28;20371;-67
2023/06/26 11:57:32;;;;;;;;;;;;;;;;;;5033378;28;19920;-67
2023/06/26 11:59:58;;;;;;;;;;;;;;;;;;5032977;28;19931;-66
2023/06/26 12:02:24;;;;;;;;;;;;;;;;;;5031131;28;19924;-66
2023/06/26 12:04:50;;;;;;;;;;;;;;;;;;5024687;28;19948;-66
2023/06/26 12:07:16;;;;;;;;;;;;;;;;;;5028241;28;20357;-67
2023/06/26 12:09:43;;;;;;;;;;;;;;;;;;4990745;28;20401;-67
2023/06/26 12:12:09;;;;;;;;;;;;;;;;;;5011273;28;19913;-67
2023/06/26 12:14:35;;;;;;;;;;;;;;;;;;5027870;28;19944;-67
2023/06/26 12:17:01;;;;;;;;;;;;;;;;;;5006855;28;19972;-67
2023/06/26 12:19:27;;;;;;;;;;;;;;;;;;5023886;28;20010;-67
2023/06/26 12:21:53;;;;;;;;;;;;;;;;;;5024706;28;19920;-66
2023/06/26 12:24:19;;;;;;;;;;;;;;;;;;5032672;28;19915;-67
2023/06/26 12:26:45;;;;;;;;;;;;;;;;;;5026715;28;19917;-67
2023/06/26 12:29:11;;;;;;;;;;;;;;;;;;5000641;28;20435;-66
2023/06/26 12:31:37;;;;;;;;;;;;;;;;;;5029750;28;19913;-67
2023/06/26 12:34:03;;;;;;;;;;;;;;;;;;5019465;28;20002;-67
2023/06/26 12:36:29;;;;;;;;;;;;;;;;;;5012996;28;19909;-66
2023/06/26 12:38:55;;;;;;;;;;;;;;;;;;5021365;28;19917;-67
2023/06/26 12:41:21;;;;;;;;;;;;;;;;;;5016956;28;19960;-66
2023/06/26 12:43:47;;;;;;;;;;;;;;;;;;5021265;28;20595;-67
2023/06/26 12:46:13;;;;;;;;;;;;;;;;;;5020256;28;19957;-67
2023/06/26 12:48:43;;;;;;;;;;;;;;;;;;5020015;28;19920;-66
2023/06/26 12:51:09;;;;;;;;;;;;;;;;;;5018160;28;19924;-65
2023/06/26 12:53:35;;;;;;;;;;;;;;;;;;5023261;28;19952;-66
2023/06/26 12:56:01;;;;;;;;;;;;;;;;;;5018676;28;20368;-65
2023/06/26 12:58:27;;;;;;;;;;;;;;;;;;5013950;28;19922;-65
2023/06/26 13:00:53;;;;;;;;;;;;;;;;;;5012216;28;20011;-66
2023/06/26 13:03:20;;;;;;;;;;;;;;;;;;5008869;28;19921;-67
2023/06/26 13:05:47;;;;;;;;;;;;;;;;;;5012588;28;19949;-67
2023/06/26 13:08:13;;;;;;;;;;;;;;;;;;5026615;28;19917;-69
2023/06/26 13:10:40;;;;;;;;;;;;;;;;;;5009833;28;19919;-66
2023/06/26 13:13:06;;;;;;;;;;;;;;;;;;5010428;28;19918;-66
2023/06/26 13:15:32;;;;;;;;;;;;;;;;;;5027240;28;19980;-66
2023/06/26 13:17:58;;;;;;;;;;;;;;;;;;5012201;28;19929;-65
2023/06/26 13:20:23;;;;;;;;;;;;;;;;;;5008740;28;20290;-65
2023/06/26 13:22:49;;;;;;;;;;;;;;;;;;5009774;28;19953;-66
2023/06/26 13:25:15;;;;;;;;;;;;;;;;;;5012106;28;19932;-66
2023/06/26 13:27:41;;;;;;;;;;;;;;;;;;5012258;28;19916;-66
2023/06/26 13:30:07;;;;;;;;;;;;;;;;;;5011765;28;19910;-65
2023/06/26 13:32:33;;;;;;;;;;;;;;;;;;5012207;28;20362;-65
2023/06/26 13:34:59;;;;;;;;;;;;;;;;;;5009382;28;19920;-65
2023/06/26 13:37:25;;;;;;;;;;;;;;;;;;5001647;28;20036;-66
2023/06/26 13:39:51;;;;;;;;;;;;;;;;;;5008010;28;19979;-66
2023/06/26 13:42:17;;;;;;;;;;;;;;;;;;4993030;28;20012;-66
2023/06/26 13:44:43;;;;;;;;;;;;;;;;;;5008305;28;19953;-66
2023/06/26 13:47:09;;;;;;;;;;;;;;;;;;5009727;28;19948;-67
2023/06/26 13:49:35;;;;;;;;;;;;;;;;;;4992714;28;20012;-66
2023/06/26 13:52:01;;;;;;;;;;;;;;;;;;5020719;28;19958;-66
2023/06/26 13:54:27;;;;;;;;;;;;;;;;;;5018111;28;19913;-66
2023/06/26 13:56:57;;;;;;;;;;;;;;;;;;5012596;28;19963;-65
2023/06/26 13:59:24;;;;;;;;;;;;;;;;;;5010892;28;20007;-64
2023/06/26 14:01:50;;;;;;;;;;;;;;;;;;5005445;28;19914;-64
2023/06/26 14:04:16;;;;;;;;;;;;;;;;;;4996014;28;19953;-65
2023/06/26 14:06:42;;;;;;;;;;;;;;;;;;5001923;28;20008;-68
2023/06/26 14:09:08;;;;;;;;;;;;;;;;;;5001827;28;19919;-72
2023/06/26 14:11:34;;;;;;;;;;;;;;;;;;5009119;28;19985;-71
2023/06/26 14:14:00;;;;;;;;;;;;;;;;;;5014110;28;19972;-69
2023/06/26 14:16:26;;;;;;;;;;;;;;;;;;5017815;28;19913;-68
2023/06/26 14:18:52;;;;;;;;;;;;;;;;;;4990658;28;19913;-68
2023/06/26 14:21:17;;;;;;;;;;;;;;;;;;5010850;28;20324;-70
2023/06/26 14:23:44;;;;;;;;;;;;;;;;;;5010379;28;19941;-71
2023/06/26 14:26:10;;;;;;;;;;;;;;;;;;5002364;28;20701;-73
2023/06/26 14:28:36;;;;;;;;;;;;;;;;;;5016156;28;20613;-71
2023/06/26 14:31:02;;;;;;;;;;;;;;;;;;5022519;28;19982;-70
2023/06/26 14:33:28;;;;;;;;;;;;;;;;;;5009783;28;19914;-70
2023/06/26 14:35:54;;;;;;;;;;;;;;;;;;5007431;28;20297;-68
2023/06/26 14:38:20;;;;;;;;;;;;;;;;;;5007117;28;19914;-67
2023/06/26 14:40:46;;;;;;;;;;;;;;;;;;5008599;28;19956;-66
2023/06/26 14:43:12;;;;;;;;;;;;;;;;;;4999056;28;19914;-63
2023/06/26 14:45:38;;;;;;;;;;;;;;;;;;5003844;28;19921;-63
2023/06/26 14:48:04;;;;;;;;;;;;;;;;;;5008877;28;19979;-61
2023/06/26 14:50:30;;;;;;;;;;;;;;;;;;5010029;28;19986;-61
2023/06/26 14:52:55;;;;;;;;;;;;;;;;;;5027052;28;19913;-61
2023/06/26 14:55:21;;;;;;;;;;;;;;;;;;5008634;28;19952;-63
2023/06/26 14:57:47;;;;;;;;;;;;;;;;;;5006581;28;20452;-64
2023/06/26 15:00:13;;;;;;;;;;;;;;;;;;5018055;28;19986;-65
2023/06/26 15:02:39;;;;;;;;;;;;;;;;;;5005395;28;19921;-64
2023/06/26 15:05:05;;;;;;;;;;;;;;;;;;5011945;28;19951;-65
2023/06/26 15:07:31;;;;;;;;;;;;;;;;;;5013173;28;20255;-65
2023/06/26 15:09:57;;;;;;;;;;;;;;;;;;5013230;28;19909;-66
2023/06/26 15:12:23;;;;;;;;;;;;;;;;;;5013536;28;19945;-67
2023/06/26 15:14:49;;;;;;;;;;;;;;;;;;5014445;28;20297;-66
2023/06/26 15:17:15;;;;;;;;;;;;;;;;;;5017788;28;19997;-67
2023/06/26 15:19:41;;;;;;;;;;;;;;;;;;5020331;28;20011;-67
2023/06/26 15:22:09;;;;;;;;;;;;;;;;;;5013454;28;21536;-67
2023/06/26 15:24:35;;;;;;;;;;;;;;;;;;5009182;28;19918;-60
2023/06/26 15:27:01;;;;;;;;;;;;;;;;;;5000587;28;19964;-60
2023/06/26 15:29:27;;;;;;;;;;;;;;;;;;5016015;28;20357;-60
2023/06/26 15:31:53;;;;;;;;;;;;;;;;;;5014999;28;19918;-61
2023/06/26 15:34:19;;;;;;;;;;;;;;;;;;5010340;28;19931;-60
2023/06/26 15:36:45;;;;;;;;;;;;;;;;;;5013727;28;20007;-61
2023/06/26 15:39:11;;;;;;;;;;;;;;;;;;5015763;28;20281;-61
2023/06/26 15:41:37;;;;;;;;;;;;;;;;;;5018257;28;19929;-65
2023/06/26 15:44:03;;;;;;;;;;;;;;;;;;5018538;28;19924;-60
2023/06/26 15:46:29;;;;;;;;;;;;;;;;;;5017257;28;19918;-61
2023/06/26 15:48:55;;;;;;;;;;;;;;;;;;5009339;28;19956;-61
2023/06/26 15:51:21;;;;;;;;;;;;;;;;;;5011717;28;19976;-61
2023/06/26 15:53:47;;;;;;;;;;;;;;;;;;5003616;28;19924;-60
2023/06/26 15:56:13;;;;;;;;;;;;;;;;;;5005526;28;19913;-61
2023/06/26 15:58:45;;;;;;;;;;;;;;;;;;5011487;28;19944;-61
2023/06/26 16:01:11;;;;;;;;;;;;;;;;;;5007928;28;19921;-61
2023/06/26 16:03:37;;;;;;;;;;;;;;;;;;5008218;28;19921;-61
2023/06/26 16:06:02;;;;;;;;;;;;;;;;;;5007751;28;20349;-61
2023/06/26 16:08:29;;;;;;;;;;;;;;;;;;5007162;28;19969;-61
2023/06/26 16:10:55;;;;;;;;;;;;;;;;;;5009712;28;19946;-62
2023/06/26 16:13:21;;;;;;;;;;;;;;;;;;5009930;28;19961;-61
2023/06/26 16:15:47;;;;;;;;;;;;;;;;;;5005385;28;20004;-61
2023/06/26 16:18:13;;;;;;;;;;;;;;;;;;5003605;28;20345;-59
2023/06/26 16:20:39;;;;;;;;;;;;;;;;;;4979691;28;19967;-61
2023/06/26 16:23:05;;;;;;;;;;;;;;;;;;5010624;28;19917;-61
2023/06/26 16:25:31;;;;;;;;;;;;;;;;;;5004667;28;20342;-62
2023/06/26 16:27:57;;;;;;;;;;;;;;;;;;4993219;28;19963;-60
2023/06/26 16:30:23;;;;;;;;;;;;;;;;;;5005579;28;19914;-62
2023/06/26 16:32:49;;;;;;;;;;;;;;;;;;5001460;28;19921;-62
2023/06/26 16:35:15;;;;;;;;;;;;;;;;;;5015895;28;19928;-62
2023/06/26 16:37:41;;;;;;;;;;;;;;;;;;5004246;28;19917;-62